New Columbia, Illinois
Current Conditions -  °F | °C
As of 10:35 AM on Friday 19 Dec 2014 (Local Time) from KM30 Reporting Station
Clear Clear  
Wind Chill: 32°   Ceiling: Unl
Heat Index: 36°   Visibility: 7mi
Dew Point: 30°   Wind: 5mph
Humidity: 79%   Direction: 20°NNE
Pressure: 30.31"   Gusts: NA
Location:  37.3798°N, 88.7652°W
Report Text: KM30 191635Z AUTO 02004KT 7SM CLR 02/M01 A3031 RMK AO2 T00211012
Loading
Personal Weather Stations






























Interactive Weather Map New forecast layout! Learn more

10-Day Weather Forecast

Advertisements
Track Severe Weather on mobile